Time;durP1;ratioP1;P1;durP2;ratioP2;P2;SDS_P1;SDS_P2;PMS_P1;PMS_P2;Temp;Humidity;BMP_temperature;BMP_pressure;BME280_temperature;BME280_humidity;BME280_pressure;Samples;Min_cycle;Max_cycle;Signal;HPM_P1;HPM_P2
2020/12/29 00:01:42;;;;;;;13.35;3.30;;;;;;;10.25;68.19;98881.63;5093863;28;20475;-75
2020/12/29 00:04:10;;;;;;;8.00;1.90;;;;;;;10.23;67.50;98876.47;5094372;28;20495;-75
2020/12/29 00:06:52;;;;;;;11.40;3.13;;;;;;;10.32;68.20;98900.31;5094773;28;20031;-75
2020/12/29 00:09:20;;;;;;;8.02;2.85;;;;;;;10.22;68.35;98901.84;5110680;28;20028;-75
2020/12/29 00:11:46;;;;;;;12.85;2.60;;;;;;;10.31;68.44;98910.66;5094026;28;20024;-75
2020/12/29 00:14:13;;;;;;;5.60;1.85;;;;;;;10.31;67.56;98912.63;5093959;28;20024;-75
2020/12/29 00:16:38;;;;;;;11.32;3.58;;;;;;;10.25;68.12;98914.19;5094553;28;20466;-75
2020/12/29 00:19:08;;;;;;;11.60;4.78;;;;;;;10.24;67.85;98918.97;5093609;28;20028;-75
2020/12/29 00:21:33;;;;;;;9.68;2.85;;;;;;;10.25;67.37;98917.78;5093552;28;20028;-75
2020/12/29 00:23:59;;;;;;;11.40;1.70;;;;;;;10.19;67.16;98924.88;5094523;28;20028;-75
2020/12/29 00:26:29;;;;;;;11.95;2.30;;;;;;;10.17;67.49;98930.00;5093432;28;20028;-75
2020/12/29 00:28:55;;;;;;;6.18;1.75;;;;;;;10.19;67.09;98928.44;5093970;28;20032;-75
2020/12/29 00:31:22;;;;;;;3.75;1.90;;;;;;;10.22;68.11;98930.44;5093701;28;20114;-75
2020/12/29 00:33:52;;;;;;;9.27;1.92;;;;;;;10.15;68.04;98947.09;5093613;28;20066;-75
2020/12/29 00:36:20;;;;;;;6.45;2.20;;;;;;;10.03;68.54;98943.84;5093474;28;20603;-75
2020/12/29 00:38:46;;;;;;;8.13;2.05;;;;;;;10.08;67.68;98951.81;5093172;28;20085;-75
2020/12/29 00:41:13;;;;;;;8.25;1.77;;;;;;;10.06;66.56;98959.75;5093175;28;20061;-75
2020/12/29 00:43:40;;;;;;;7.95;2.53;;;;;;;9.97;67.68;98952.56;5094410;28;20106;-75
2020/12/29 00:46:08;;;;;;;6.07;1.98;;;;;;;10.00;66.32;98956.53;5093432;28;20020;-75
2020/12/29 00:48:34;;;;;;;7.65;1.67;;;;;;;9.92;66.92;98963.25;5092539;28;20024;-75
2020/12/29 00:51:13;;;;;;;3.92;1.45;;;;;;;9.89;66.35;98969.56;5092692;28;20470;-75
2020/12/29 00:53:41;;;;;;;4.97;1.50;;;;;;;9.77;67.07;98970.69;5109478;28;20143;-75
2020/12/29 00:56:08;;;;;;;7.90;2.17;;;;;;;9.85;66.85;98969.53;5114026;28;20024;-75
2020/12/29 00:58:34;;;;;;;5.15;2.35;;;;;;;9.67;67.77;98979.75;5096118;28;20116;-75
2020/12/29 01:01:00;;;;;;;11.55;2.05;;;;;;;9.69;68.26;98985.69;5113063;28;20455;-75
2020/12/29 01:03:26;;;;;;;5.90;1.55;;;;;;;9.46;68.55;98966.50;5095966;28;20036;-75
2020/12/29 01:05:52;;;;;;;8.02;1.77;;;;;;;9.55;68.07;98996.72;5095828;28;20035;-75
2020/12/29 01:08:18;;;;;;;7.75;2.55;;;;;;;9.46;70.10;98994.25;5096228;28;20035;-75
2020/12/29 01:10:44;;;;;;;8.75;2.50;;;;;;;9.38;70.32;98987.88;5113891;28;20055;-75
2020/12/29 01:13:15;;;;;;;3.85;1.88;;;;;;;9.24;70.76;98993.28;5095615;28;20051;-75
2020/12/29 01:15:40;;;;;;;7.70;2.15;;;;;;;9.32;69.77;98989.41;5096131;28;20024;-75
2020/12/29 01:18:06;;;;;;;13.23;2.55;;;;;;;9.26;69.74;98990.13;5113749;28;20527;-75
2020/12/29 01:20:32;;;;;;;14.25;2.50;;;;;;;9.33;70.22;99010.41;5112575;28;20034;-75
2020/12/29 01:23:01;;;;;;;8.35;2.28;;;;;;;9.31;71.10;99004.44;5095488;28;20035;-75
2020/12/29 01:25:26;;;;;;;11.15;2.17;;;;;;;9.33;71.27;99020.72;5095462;28;20103;-75
2020/12/29 01:27:52;;;;;;;6.53;1.80;;;;;;;9.27;72.02;99014.72;5113288;28;20122;-75
2020/12/29 01:30:21;;;;;;;7.28;2.47;;;;;;;9.20;71.47;99022.97;5078823;28;20039;-75
2020/12/29 01:32:46;;;;;;;9.63;1.80;;;;;;;9.17;71.43;99019.00;5113538;28;20032;-75
2020/12/29 01:35:12;;;;;;;5.80;2.05;;;;;;;9.14;71.67;99018.94;5112604;28;20114;-75
2020/12/29 01:37:42;;;;;;;7.85;1.80;;;;;;;9.11;71.90;99020.53;5113893;28;20076;-75
2020/12/29 01:40:09;;;;;;;4.45;1.63;;;;;;;9.11;71.82;99025.28;5113562;28;20019;-75
2020/12/29 01:42:34;;;;;;;6.97;1.80;;;;;;;9.08;71.62;99034.34;5095805;28;20042;-75
2020/12/29 01:45:00;;;;;;;6.93;2.00;;;;;;;9.10;70.81;99032.00;5095942;28;20114;-75
2020/12/29 01:47:29;;;;;;;9.57;1.67;;;;;;;9.14;70.30;99024.50;5096023;28;20034;-75
2020/12/29 01:49:54;;;;;;;5.53;1.20;;;;;;;9.13;69.97;98997.94;5095621;28;20454;-75
2020/12/29 01:52:19;;;;;;;6.85;1.98;;;;;;;9.14;70.06;99021.72;5113225;28;20027;-75
2020/12/29 01:54:45;;;;;;;5.20;1.80;;;;;;;9.28;70.07;99027.44;5112084;28;20075;-75
2020/12/29 01:57:11;;;;;;;7.38;1.77;;;;;;;9.20;69.92;99031.28;5095090;28;20448;-75
2020/12/29 01:59:37;;;;;;;5.85;1.48;;;;;;;9.05;70.74;99029.56;5113482;28;20050;-75
2020/12/29 02:02:03;;;;;;;7.97;1.08;;;;;;;9.18;69.58;99030.91;5099082;28;20462;-75
2020/12/29 02:04:28;;;;;;;18.08;1.98;;;;;;;9.10;70.31;99029.22;5099596;28;20367;-75
2020/12/29 02:06:57;;;;;;;6.45;1.95;;;;;;;9.15;70.47;99020.53;5117695;28;20474;-75
2020/12/29 02:09:23;;;;;;;5.05;1.88;;;;;;;9.24;68.38;99012.72;5099188;28;20028;-75
2020/12/29 02:11:49;;;;;;;8.35;2.70;;;;;;;9.33;67.72;99013.19;5099673;28;20031;-75
2020/12/29 02:14:16;;;;;;;4.90;1.83;;;;;;;9.36;67.17;99006.88;5099488;28;20416;-75
2020/12/29 02:16:43;;;;;;;5.70;2.28;;;;;;;9.37;67.02;99002.91;5098885;28;20023;-75
2020/12/29 02:19:10;;;;;;;10.77;1.55;;;;;;;9.41;66.02;99014.03;5099025;28;20118;-75
2020/12/29 02:21:37;;;;;;;4.68;1.08;;;;;;;9.22;66.04;98973.44;5116968;28;20023;-75
2020/12/29 02:24:08;;;;;;;8.50;0.90;;;;;;;9.45;66.52;99021.22;5099043;28;20499;-75
2020/12/29 02:26:37;;;;;;;4.53;1.48;;;;;;;9.44;65.70;99016.88;5117336;28;20065;-74
2020/12/29 02:29:05;;;;;;;5.80;1.27;;;;;;;9.33;66.37;99018.75;5098773;28;20123;-75
2020/12/29 02:31:33;;;;;;;3.40;1.00;;;;;;;9.29;66.24;99020.69;5098469;28;20019;-75
2020/12/29 02:33:58;;;;;;;5.35;1.05;;;;;;;9.26;67.08;99035.31;5098902;28;20028;-75
2020/12/29 02:36:24;;;;;;;3.03;0.98;;;;;;;9.15;66.61;99023.31;5098641;28;20435;-74
2020/12/29 02:38:50;;;;;;;5.82;1.60;;;;;;;9.06;67.79;99031.19;5098969;28;20035;-75
2020/12/29 02:41:19;;;;;;;5.30;1.27;;;;;;;8.81;67.49;99014.25;5081885;28;20031;-75
2020/12/29 02:43:45;;;;;;;3.50;1.75;;;;;;;8.86;68.24;99042.44;5116940;28;20081;-75
2020/12/29 02:46:15;;;;;;;5.30;2.03;;;;;;;8.89;68.93;99038.94;5098908;28;20028;-75
2020/12/29 02:48:41;;;;;;;6.68;2.25;;;;;;;8.77;68.80;99053.03;5098245;28;20027;-75
2020/12/29 02:51:06;;;;;;;4.60;1.08;;;;;;;8.73;69.49;99046.63;5117048;28;20028;-75
2020/12/29 02:53:32;;;;;;;4.45;1.05;;;;;;;8.72;68.65;99045.03;5116077;28;20085;-75
2020/12/29 02:55:57;;;;;;;5.13;1.25;;;;;;;8.73;68.08;99046.63;5116610;28;20058;-75
2020/12/29 02:58:23;;;;;;;4.10;1.20;;;;;;;8.71;68.15;99042.66;5098149;28;20392;-75
2020/12/29 03:00:48;;;;;;;4.20;1.25;;;;;;;8.72;68.14;99033.94;5098582;28;20028;-75
2020/12/29 03:03:17;;;;;;;6.20;0.88;;;;;;;8.81;67.45;99030.91;5116096;28;20124;-75
2020/12/29 03:05:45;;;;;;;6.20;1.05;;;;;;;8.80;67.90;99027.31;5097961;28;20019;-74
2020/12/29 03:08:13;;;;;;;6.32;1.15;;;;;;;8.77;67.59;99039.16;5115101;28;20420;-75
2020/12/29 03:10:41;;;;;;;7.07;2.47;;;;;;;8.83;68.09;99036.84;5116158;28;20023;-75
2020/12/29 03:13:07;;;;;;;3.72;0.80;;;;;;;8.79;69.14;99036.81;5114730;28;20023;-75
2020/12/29 03:15:34;;;;;;;7.28;1.10;;;;;;;8.71;68.36;99031.56;5097709;28;20031;-75
2020/12/29 03:18:02;;;;;;;6.03;0.90;;;;;;;8.68;68.56;99024.78;5098184;28;20031;-75
2020/12/29 03:20:28;;;;;;;3.80;1.08;;;;;;;8.68;67.43;99035.88;5116107;28;20066;-75
2020/12/29 03:22:58;;;;;;;8.85;2.15;;;;;;;8.74;66.91;99036.38;5097656;28;20055;-75
2020/12/29 03:25:23;;;;;;;5.43;3.40;;;;;;;8.71;67.61;99039.88;5097511;28;20478;-75
2020/12/29 03:27:49;;;;;;;8.32;2.67;;;;;;;8.73;67.43;99049.41;5097759;28;20038;-74
2020/12/29 03:30:14;;;;;;;5.57;2.08;;;;;;;8.76;67.27;99042.31;5114468;28;20031;-74
2020/12/29 03:32:40;;;;;;;4.97;1.85;;;;;;;8.87;66.18;99041.25;5114731;28;20169;-76
2020/12/29 03:35:05;;;;;;;7.28;1.92;;;;;;;8.98;65.91;99051.69;5098318;28;20059;-74
2020/12/29 03:37:33;;;;;;;4.70;2.10;;;;;;;8.92;66.92;99037.34;5114785;28;20049;-75
2020/12/29 03:39:59;;;;;;;8.73;3.53;;;;;;;8.84;68.17;99060.63;5097752;28;20020;-74
2020/12/29 03:42:29;;;;;;;10.43;2.13;;;;;;;8.73;69.02;99068.81;5097540;28;20051;-74
2020/12/29 03:44:57;;;;;;;4.50;2.17;;;;;;;8.64;69.72;99062.78;5115639;28;20107;-74
2020/12/29 03:47:27;;;;;;;10.93;4.20;;;;;;;8.58;69.57;99069.84;5116454;28;20035;-74
2020/12/29 03:49:53;;;;;;;11.13;4.50;;;;;;;8.59;70.73;99075.00;5116101;28;20024;-74
2020/12/29 03:52:20;;;;;;;7.18;3.28;;;;;;;8.66;71.45;99075.09;5097451;28;20089;-74
2020/12/29 03:54:46;;;;;;;9.48;2.63;;;;;;;8.52;71.02;99079.63;5097020;28;20043;-75
2020/12/29 03:57:11;;;;;;;7.25;2.60;;;;;;;8.40;71.61;99075.94;5115318;28;20072;-74
2020/12/29 03:59:37;;;;;;;10.63;3.90;;;;;;;8.54;71.89;99071.75;5097955;28;20055;-75
2020/12/29 04:02:05;;;;;;;8.13;2.65;;;;;;;8.51;71.54;99076.06;5097335;28;20532;-74
2020/12/29 04:04:31;;;;;;;5.90;2.53;;;;;;;8.44;71.78;99080.72;5116126;28;20050;-75
2020/12/29 04:06:56;;;;;;;10.20;2.30;;;;;;;8.53;72.01;99075.72;5097251;28;20032;-75
2020/12/29 04:09:29;;;;;;;12.93;2.40;;;;;;;8.50;73.13;99077.25;5097529;28;20027;-75
2020/12/29 04:11:58;;;;;;;9.30;3.38;;;;;;;8.46;73.47;99072.81;5097476;28;20027;-75
2020/12/29 04:14:26;;;;;;;5.75;2.65;;;;;;;8.40;73.71;99081.47;5097101;28;20064;-75
2020/12/29 04:16:57;;;;;;;5.13;2.88;;;;;;;8.34;73.88;99082.16;5097223;28;20400;-75
2020/12/29 04:19:22;;;;;;;40.65;22.55;;;;;;;8.37;74.41;99096.09;5096893;28;20042;-75
2020/12/29 04:21:48;;;;;;;25.48;11.88;;;;;;;8.34;74.51;99085.72;5113553;28;20024;-75
2020/12/29 04:24:13;;;;;;;21.23;12.40;;;;;;;8.32;75.39;99098.38;5113393;28;20072;-75
2020/12/29 04:26:38;;;;;;;39.08;21.60;;;;;;;8.26;75.12;99089.56;5113658;28;20030;-75
2020/12/29 04:29:06;;;;;;;24.67;13.48;;;;;;;8.24;75.96;99086.34;5115068;28;20489;-74
2020/12/29 04:31:32;;;;;;;25.08;15.00;;;;;;;8.23;76.10;99095.84;5114492;28;20020;-75
2020/12/29 04:33:58;;;;;;;26.48;15.52;;;;;;;8.34;76.42;99118.97;5096630;28;20031;-75
2020/12/29 04:36:28;;;;;;;21.73;15.25;;;;;;;8.28;75.47;99126.00;5114861;28;20024;-74
2020/12/29 04:38:56;;;;;;;25.15;14.60;;;;;;;8.34;76.83;99149.47;5096906;28;20032;-74
2020/12/29 04:41:22;;;;;;;17.88;11.13;;;;;;;8.58;77.03;99189.06;5114506;28;20031;-75
2020/12/29 04:43:49;;;;;;;5.55;2.70;;;;;;;8.35;77.62;99164.91;5113775;28;20058;-74
2020/12/29 04:46:15;;;;;;;10.35;4.03;;;;;;;8.14;77.18;99153.50;5113796;28;20192;-74
2020/12/29 04:48:41;;;;;;;7.03;2.35;;;;;;;8.02;76.29;99148.97;5079670;28;20488;-74
2020/12/29 04:51:08;;;;;;;7.72;1.88;;;;;;;7.93;77.06;99148.41;5096421;28;20093;-74
2020/12/29 04:53:35;;;;;;;2.92;1.13;;;;;;;7.84;77.19;99151.44;5096195;28;20027;-74
2020/12/29 04:56:07;;;;;;;1.83;1.02;;;;;;;7.85;77.81;99141.94;5096287;28;20482;-75
2020/12/29 04:58:35;;;;;;;9.15;2.83;;;;;;;7.82;78.50;99142.69;5095867;28;20038;-74
2020/12/29 05:01:07;;;;;;;8.45;3.83;;;;;;;7.82;79.71;99148.22;5114392;28;20122;-76
2020/12/29 05:03:46;;;;;;;13.23;4.10;;;;;;;7.79;80.59;99148.97;5114542;28;20522;-76
2020/12/29 05:06:14;;;;;;;5.80;3.15;;;;;;;7.82;81.26;99137.13;5078897;28;20032;-75
2020/12/29 05:08:50;;;;;;;7.05;3.35;;;;;;;7.82;82.09;99131.59;5095674;28;20027;-75
2020/12/29 05:11:17;;;;;;;13.50;5.88;;;;;;;7.97;80.70;99131.84;5095290;28;20032;-75
2020/12/29 05:13:45;;;;;;;15.50;4.65;;;;;;;7.73;81.55;99128.31;5096358;28;20028;-75
2020/12/29 05:16:11;;;;;;;7.60;3.33;;;;;;;7.61;82.01;99136.78;5096026;28;20100;-74
2020/12/29 05:18:37;;;;;;;9.95;4.90;;;;;;;7.67;83.43;99146.41;5095359;28;20462;-74
2020/12/29 05:21:03;;;;;;;9.43;4.35;;;;;;;7.65;83.46;99139.59;5095518;28;20386;-75
2020/12/29 05:23:29;;;;;;;10.07;4.05;;;;;;;7.64;81.00;99136.03;5095784;28;20028;-75
2020/12/29 05:25:56;;;;;;;5.53;1.27;;;;;;;7.77;77.62;99133.88;5095894;28;20039;-75
2020/12/29 05:28:25;;;;;;;4.20;2.10;;;;;;;7.79;77.50;99131.56;5113733;28;20027;-75
2020/12/29 05:31:02;;;;;;;6.82;2.25;;;;;;;7.72;78.22;99143.28;5113874;28;20023;-74
2020/12/29 05:33:28;;;;;;;3.08;1.50;;;;;;;7.74;79.16;99135.44;5096281;28;20033;-74
2020/12/29 05:35:54;;;;;;;4.65;1.95;;;;;;;7.83;79.97;99154.59;5097175;28;20415;-75
2020/12/29 05:38:23;;;;;;;6.28;2.35;;;;;;;7.83;80.73;99152.63;5118339;28;20080;-75
2020/12/29 05:40:49;;;;;;;5.43;1.92;;;;;;;7.80;80.86;99156.09;5117859;28;20490;-76
2020/12/29 05:43:26;;;;;;;4.60;2.33;;;;;;;7.74;80.44;99154.81;5099718;28;20129;-74
2020/12/29 05:45:57;;;;;;;7.40;3.47;;;;;;;7.74;80.41;99157.59;5100323;28;20031;-74
2020/12/29 05:48:23;;;;;;;7.03;2.42;;;;;;;7.58;80.63;99129.22;5100514;28;20069;-74
2020/12/29 05:50:48;;;;;;;7.53;2.95;;;;;;;7.74;81.11;99165.09;5100412;28;20027;-75
2020/12/29 05:53:18;;;;;;;6.55;2.72;;;;;;;7.60;82.20;99163.66;5117112;28;20473;-74
2020/12/29 05:55:46;;;;;;;7.65;2.53;;;;;;;7.55;82.55;99143.78;5117743;28;20035;-74
2020/12/29 05:58:12;;;;;;;5.90;3.30;;;;;;;7.63;83.22;99167.69;5100288;28;20070;-75
2020/12/29 06:00:40;;;;;;;8.32;3.33;;;;;;;7.60;83.05;99171.16;5117733;28;20048;-74
2020/12/29 06:03:08;;;;;;;6.10;3.65;;;;;;;7.68;82.98;99175.69;5117623;28;20471;-74
2020/12/29 06:05:35;;;;;;;4.68;3.22;;;;;;;7.59;83.43;99177.88;5099515;28;20093;-74
2020/12/29 06:08:06;;;;;;;7.95;3.80;;;;;;;7.59;83.17;99172.34;5099814;28;20399;-74
2020/12/29 06:10:33;;;;;;;6.50;4.45;;;;;;;7.15;83.40;99120.13;5116091;28;20056;-74
2020/12/29 06:13:01;;;;;;;6.60;4.32;;;;;;;7.49;84.37;99179.28;5117466;28;20023;-74
2020/12/29 06:15:37;;;;;;;13.68;5.65;;;;;;;7.51;84.16;99192.72;5099399;28;20381;-74
2020/12/29 06:18:05;;;;;;;14.88;6.53;;;;;;;7.46;84.20;99184.75;5099781;28;20533;-76
2020/12/29 06:20:52;;;;;;;12.50;5.78;;;;;;;7.43;84.51;99185.47;5099140;28;20048;-75
2020/12/29 06:23:18;;;;;;;10.10;5.85;;;;;;;7.41;84.23;99191.38;5117173;28;20110;-75
2020/12/29 06:25:46;;;;;;;14.60;6.75;;;;;;;7.42;84.17;99197.72;5099087;28;20072;-75
2020/12/29 06:28:17;;;;;;;10.00;6.43;;;;;;;7.45;84.06;99200.53;5099056;28;20032;-75
2020/12/29 06:30:45;;;;;;;16.30;8.23;;;;;;;7.48;84.56;99193.47;5098800;28;20546;-75
2020/12/29 06:33:17;;;;;;;22.30;14.10;;;;;;;7.51;84.07;99184.44;5099384;28;20085;-75
2020/12/29 06:35:43;;;;;;;47.83;25.73;;;;;;;7.50;84.01;99185.59;5115688;28;20020;-75
2020/12/29 06:38:24;;;;;;;85.38;51.78;;;;;;;7.55;84.42;99188.06;5099097;28;20080;-75
2020/12/29 06:40:51;;;;;;;51.10;29.77;;;;;;;7.65;83.50;99198.53;5115185;28;20114;-75
2020/12/29 06:43:19;;;;;;;27.80;16.92;;;;;;;7.60;83.92;99201.63;5099115;28;20023;-75
2020/12/29 06:45:45;;;;;;;16.20;10.63;;;;;;;7.29;83.74;99164.66;5116778;28;20027;-74
2020/12/29 06:48:18;;;;;;;5.88;2.42;;;;;;;7.53;81.84;99213.34;5116268;28;20424;-75
2020/12/29 06:50:45;;;;;;;18.48;12.52;;;;;;;7.60;82.92;99198.84;5098223;28;20031;-75
2020/12/29 06:53:16;;;;;;;12.25;9.27;;;;;;;7.66;83.48;99210.41;5098716;28;20051;-74
2020/12/29 06:55:49;;;;;;;11.60;7.10;;;;;;;7.65;83.70;99215.16;5098365;28;20052;-75
2020/12/29 06:58:32;;;;;;;11.70;6.55;;;;;;;7.61;83.74;99215.09;5099143;28;20059;-74
2020/12/29 07:01:22;;;;;;;13.77;5.85;;;;;;;7.69;83.10;99220.78;5098498;28;20031;-75
2020/12/29 07:04:07;;;;;;;10.93;4.68;;;;;;;7.66;82.66;99222.28;5098393;28;20031;-74
2020/12/29 07:06:34;;;;;;;12.15;5.38;;;;;;;7.65;82.69;99230.97;5116962;28;20024;-74
2020/12/29 07:09:20;;;;;;;9.10;5.90;;;;;;;7.68;83.11;99224.72;5098341;28;20028;-75
2020/12/29 07:12:06;;;;;;;9.80;6.53;;;;;;;7.78;83.04;99233.22;5077195;28;20448;-74
2020/12/29 07:14:34;;;;;;;9.73;5.97;;;;;;;7.83;82.82;99234.91;5116772;28;20485;-75
2020/12/29 07:17:00;;;;;;;17.00;7.68;;;;;;;7.84;82.87;99228.97;5098004;28;20038;-74
2020/12/29 07:19:29;;;;;;;13.75;9.23;;;;;;;7.93;82.28;99228.72;5081153;28;20036;-74
2020/12/29 07:21:58;;;;;;;19.90;9.50;;;;;;;7.98;82.51;99228.41;5098154;28;20024;-74
2020/12/29 07:24:28;;;;;;;18.88;11.15;;;;;;;8.01;82.49;99226.91;5098715;28;20057;-75
2020/12/29 07:26:57;;;;;;;17.13;10.68;;;;;;;7.99;82.36;99232.81;5115226;28;20065;-74
2020/12/29 07:29:23;;;;;;;14.07;10.10;;;;;;;8.03;82.04;99239.19;5116408;28;20049;-74
2020/12/29 07:31:51;;;;;;;18.92;11.10;;;;;;;8.08;82.16;99243.63;5115125;28;20028;-75
2020/12/29 07:34:19;;;;;;;16.27;11.05;;;;;;;8.84;81.37;99243.69;5115014;28;20030;-75
2020/12/29 07:36:49;;;;;;;13.93;11.25;;;;;;;8.95;79.33;99241.06;5097474;28;20085;-74
2020/12/29 07:39:17;;;;;;;15.95;12.30;;;;;;;9.34;77.95;99238.84;5114360;28;20028;-75
2020/12/29 07:41:44;;;;;;;20.73;13.05;;;;;;;9.87;77.42;99235.88;5115443;28;20343;-75
2020/12/29 07:44:10;;;;;;;24.60;13.98;;;;;;;10.92;73.00;99228.84;5097627;28;20065;-75
2020/12/29 07:46:40;;;;;;;21.30;12.43;;;;;;;11.91;70.32;99230.47;5116158;28;20035;-75
2020/12/29 07:49:06;;;;;;;14.63;11.40;;;;;;;12.96;65.80;99229.31;5097269;28;20500;-75
2020/12/29 07:51:46;;;;;;;14.50;11.75;;;;;;;13.68;62.77;99244.63;5115550;28;20027;-74
2020/12/29 07:54:11;;;;;;;20.00;13.25;;;;;;;13.69;62.65;99248.22;5110162;28;20052;-75
2020/12/29 07:56:38;;;;;;;18.60;12.68;;;;;;;13.25;63.99;99257.97;5093327;28;20054;-75
2020/12/29 07:59:11;;;;;;;24.42;18.15;;;;;;;13.01;65.02;99266.00;5093493;28;20028;-74
2020/12/29 08:01:56;;;;;;;19.95;15.65;;;;;;;12.62;66.31;99263.22;5094655;28;20024;-76
2020/12/29 08:04:32;;;;;;;21.00;14.57;;;;;;;12.45;67.42;99262.00;5094732;28;20077;-76
2020/12/29 08:07:05;;;;;;;18.90;12.85;;;;;;;13.18;65.77;99257.97;5093494;28;20028;-73
2020/12/29 08:09:43;;;;;;;20.80;12.30;;;;;;;13.84;63.10;99272.13;5093325;28;20028;-75
2020/12/29 08:12:09;;;;;;;16.60;11.98;;;;;;;13.59;63.59;99273.03;5092831;28;20308;-74
2020/12/29 08:14:40;;;;;;;15.07;10.27;;;;;;;13.75;62.75;99263.41;5093078;28;20059;-74
2020/12/29 08:17:08;;;;;;;12.50;7.00;;;;;;;13.06;59.11;99262.00;5092847;28;20039;-74
2020/12/29 08:19:36;;;;;;;12.85;7.57;;;;;;;13.43;59.87;99257.94;5093436;28;20381;-74
2020/12/29 08:22:10;;;;;;;20.02;9.70;;;;;;;14.01;60.00;99268.47;5092899;28;20028;-73
2020/12/29 08:24:36;;;;;;;22.52;12.30;;;;;;;14.55;59.15;99277.31;5094681;28;20024;-74
2020/12/29 08:27:02;;;;;;;11.02;7.68;;;;;;;15.33;56.75;99269.38;5094125;28;20032;-74
2020/12/29 08:29:31;;;;;;;14.23;7.05;;;;;;;15.81;54.68;99262.81;5094657;28;20366;-75
2020/12/29 08:32:33;;;;;;;9.43;5.43;;;;;;;16.34;52.12;99273.31;5092757;28;20025;-74
2020/12/29 08:35:01;;;;;;;8.90;4.65;;;;;;;16.99;50.88;99275.88;5084063;28;20032;-75
2020/12/29 08:37:30;;;;;;;6.20;3.78;;;;;;;16.86;48.64;99277.72;5093046;28;20105;-75
2020/12/29 08:40:15;;;;;;;7.60;3.33;;;;;;;17.17;46.97;99282.00;5110186;28;20050;-74
2020/12/29 08:42:49;;;;;;;11.00;3.38;;;;;;;17.31;46.75;99275.31;5093127;28;20118;-74
2020/12/29 08:45:15;;;;;;;10.68;3.97;;;;;;;17.46;46.11;99285.06;5094104;28;20024;-73
2020/12/29 08:47:45;;;;;;;11.23;3.70;;;;;;;17.02;46.67;99272.22;5075680;28;20036;-74
2020/12/29 08:50:25;;;;;;;9.05;4.18;;;;;;;17.13;47.63;99274.84;5092538;28;20020;-74
2020/12/29 08:52:53;;;;;;;9.07;5.22;;;;;;;16.68;49.39;99289.25;5092728;28;20119;-74
2020/12/29 08:55:27;;;;;;;14.45;7.47;;;;;;;15.99;52.01;99291.47;5092253;28;20102;-75
2020/12/29 08:57:55;;;;;;;12.07;7.28;;;;;;;16.02;51.30;99293.41;5093930;28;20031;-74
2020/12/29 09:00:21;;;;;;;7.40;4.30;;;;;;;15.50;51.97;99290.00;5093037;28;20089;-74
2020/12/29 09:02:47;;;;;;;8.98;4.60;;;;;;;14.33;56.20;99292.66;5093212;28;20044;-76
2020/12/29 09:05:19;;;;;;;13.30;5.47;;;;;;;14.26;57.07;99282.28;5092954;28;20036;-75
2020/12/29 09:07:52;;;;;;;9.80;5.95;;;;;;;13.84;58.68;99289.69;5094273;28;20039;-74
2020/12/29 09:10:18;;;;;;;23.77;15.15;;;;;;;13.26;60.66;99281.91;5092326;28;20067;-74
2020/12/29 09:12:47;;;;;;;18.17;7.60;;;;;;;12.87;61.16;99279.16;5092689;28;20019;-75
2020/12/29 09:15:27;;;;;;;15.07;8.02;;;;;;;13.41;60.73;99277.09;5092157;28;20031;-75
2020/12/29 09:17:59;;;;;;;15.02;7.28;;;;;;;13.57;59.71;99274.63;5093989;28;20046;-74
2020/12/29 09:20:30;;;;;;;16.27;7.65;;;;;;;13.99;58.80;99276.44;5093124;28;20040;-74
2020/12/29 09:23:10;;;;;;;13.82;9.18;;;;;;;14.41;57.00;99280.97;5091963;28;20454;-74
2020/12/29 09:25:45;;;;;;;17.48;7.85;;;;;;;14.15;58.74;99275.94;5093638;28;20024;-74
2020/12/29 09:28:29;;;;;;;19.02;8.15;;;;;;;13.98;59.49;99266.47;5092384;28;20028;-75
2020/12/29 09:31:01;;;;;;;14.02;5.22;;;;;;;13.58;58.88;99242.69;5092674;28;20445;-74
2020/12/29 09:33:29;;;;;;;11.40;4.95;;;;;;;14.34;57.59;99272.63;5092188;28;20032;-75
2020/12/29 09:35:58;;;;;;;9.43;4.25;;;;;;;15.00;55.02;99263.31;5092367;28;20039;-75
2020/12/29 09:38:26;;;;;;;10.43;4.20;;;;;;;15.80;54.27;99252.81;5093286;28;20058;-74
2020/12/29 09:40:52;;;;;;;12.65;4.15;;;;;;;16.83;52.05;99259.72;5092088;28;20035;-74
2020/12/29 09:43:18;;;;;;;8.30;3.70;;;;;;;17.49;47.88;99252.47;5091662;28;20028;-74
2020/12/29 09:45:45;;;;;;;9.45;2.97;;;;;;;17.70;48.06;99245.63;5091846;28;20394;-74
2020/12/29 09:48:17;;;;;;;5.82;2.47;;;;;;;17.97;47.40;99254.72;5093115;28;20028;-74
2020/12/29 09:50:46;;;;;;;7.82;2.22;;;;;;;18.14;45.98;99252.72;5093126;28;20028;-74
2020/12/29 09:53:11;;;;;;;6.00;2.30;;;;;;;18.15;45.68;99259.94;5092780;28;20052;-75
2020/12/29 09:55:38;;;;;;;7.28;1.55;;;;;;;18.04;45.91;99256.56;5091206;28;20076;-74
2020/12/29 09:58:08;;;;;;;5.40;1.73;;;;;;;17.56;45.61;99243.88;5092038;28;20031;-75
2020/12/29 10:00:37;;;;;;;7.43;2.13;;;;;;;17.44;45.73;99239.72;5093925;28;20088;-74
2020/12/29 10:03:03;;;;;;;7.63;2.03;;;;;;;17.33;44.42;99238.34;5093451;28;20157;-75
2020/12/29 10:05:31;;;;;;;8.45;1.70;;;;;;;17.65;44.52;99238.47;5093627;28;20099;-75
2020/12/29 10:08:01;;;;;;;9.23;2.08;;;;;;;17.70;44.07;99234.38;5091929;28;20446;-74
2020/12/29 10:10:27;;;;;;;4.72;1.60;;;;;;;17.28;43.94;99220.75;5092042;28;20096;-75
2020/12/29 10:12:56;;;;;;;5.68;1.42;;;;;;;16.90;43.74;99228.69;5092045;28;20119;-74
2020/12/29 10:15:21;;;;;;;8.73;1.77;;;;;;;17.31;42.85;99229.53;5093263;28;20382;-75
2020/12/29 10:17:50;;;;;;;3.80;1.83;;;;;;;17.16;43.32;99229.81;5091695;28;20032;-75
2020/12/29 10:20:15;;;;;;;7.45;1.08;;;;;;;17.17;41.86;99227.81;5093137;28;20028;-74
2020/12/29 10:22:45;;;;;;;7.07;2.40;;;;;;;16.85;41.47;99231.19;5094527;28;20024;-74
2020/12/29 10:25:14;;;;;;;6.15;1.08;;;;;;;16.75;42.27;99230.16;5095896;28;20046;-74
2020/12/29 10:27:52;;;;;;;3.88;1.25;;;;;;;17.32;42.09;99226.31;5095139;28;20028;-74
2020/12/29 10:30:18;;;;;;;5.78;1.20;;;;;;;16.97;41.11;99236.97;5095435;28;20043;-74
2020/12/29 10:32:43;;;;;;;3.53;1.35;;;;;;;16.58;41.80;99226.41;5096204;28;20024;-74
2020/12/29 10:35:09;;;;;;;7.88;1.33;;;;;;;16.31;42.94;99231.28;5095774;28;20601;-75
2020/12/29 10:37:37;;;;;;;6.57;1.50;;;;;;;16.08;44.27;99229.97;5096042;28;20046;-74
2020/12/29 10:40:06;;;;;;;10.05;1.65;;;;;;;16.50;43.53;99236.16;5095839;28;20435;-74
2020/12/29 10:42:35;;;;;;;8.23;1.38;;;;;;;16.03;44.16;99227.66;5095516;28;20109;-74
2020/12/29 10:45:00;;;;;;;4.57;1.40;;;;;;;16.11;44.50;99222.75;5095506;28;20046;-74
2020/12/29 10:47:26;;;;;;;5.43;1.42;;;;;;;16.10;44.89;99226.78;5095565;28;20458;-74
2020/12/29 10:49:54;;;;;;;5.97;1.58;;;;;;;15.78;45.05;99211.19;5095539;28;20463;-74
2020/12/29 10:52:20;;;;;;;11.57;3.40;;;;;;;15.74;46.41;99221.66;5096465;28;20019;-74
2020/12/29 10:54:47;;;;;;;4.22;1.40;;;;;;;15.66;47.48;99220.19;5094876;28;20566;-74
2020/12/29 10:57:13;;;;;;;5.43;1.23;;;;;;;15.34;47.05;99198.09;5094914;28;20024;-74
2020/12/29 10:59:38;;;;;;;2.88;1.65;;;;;;;15.30;48.34;99216.97;5096957;28;20081;-74
2020/12/29 11:02:05;;;;;;;6.22;1.95;;;;;;;15.16;48.69;99223.53;5094997;28;20032;-74
2020/12/29 11:04:31;;;;;;;3.97;2.17;;;;;;;15.18;49.11;99207.91;5094673;28;20036;-74
2020/12/29 11:06:56;;;;;;;11.82;1.85;;;;;;;15.08;49.47;99206.00;5095124;28;20035;-74
2020/12/29 11:09:22;;;;;;;4.65;1.60;;;;;;;15.06;49.79;99191.63;5096231;28;20433;-74
2020/12/29 11:11:48;;;;;;;3.40;1.20;;;;;;;15.04;48.87;99194.06;5094475;28;20393;-75
2020/12/29 11:14:16;;;;;;;10.57;2.35;;;;;;;15.27;48.66;99189.78;5094758;28;20032;-74
2020/12/29 11:16:41;;;;;;;10.13;1.67;;;;;;;15.22;48.59;99191.03;5094913;28;20055;-75
2020/12/29 11:19:09;;;;;;;5.35;1.75;;;;;;;15.40;48.21;99186.03;5094258;28;20394;-75
2020/12/29 11:21:35;;;;;;;3.88;1.90;;;;;;;15.60;47.28;99183.34;5111774;28;20036;-75
2020/12/29 11:24:06;;;;;;;7.63;2.35;;;;;;;15.91;46.82;99192.56;5096241;28;20523;-74
2020/12/29 11:26:32;;;;;;;5.53;2.03;;;;;;;16.23;45.52;99185.66;5094744;28;20529;-75
2020/12/29 11:29:00;;;;;;;3.20;1.90;;;;;;;16.60;44.23;99170.59;5094505;28;20032;-75
2020/12/29 11:31:27;;;;;;;4.82;1.50;;;;;;;16.15;44.25;99179.38;5094446;28;20072;-76
2020/12/29 11:33:55;;;;;;;5.80;1.90;;;;;;;15.57;44.94;99172.19;5093451;28;20058;-74
2020/12/29 11:36:23;;;;;;;8.15;2.13;;;;;;;15.49;45.47;99176.28;5094376;28;20062;-74
2020/12/29 11:38:49;;;;;;;7.13;1.80;;;;;;;15.23;45.42;99178.59;5095008;28;20150;-75
2020/12/29 11:41:15;;;;;;;8.52;1.65;;;;;;;15.22;44.88;99179.03;5093612;28;20060;-74